Cotes De Bretagne — FW3973 — position and weather

sailwx.info

Track history (hours):
 
Tides and Currents Weather Stations Pressure Air Temp Water Temp Dewpoint Dewpoint Depression Visibility Wind Speed Wind Dir Waves Ship Positions

Cotes De Bretagne

Last reported at 2017-Apr-24 19:00 UTC. Time now 2017-Apr-24 19:21 UTC.
Position N 46°10' W 001°40'.

Length 75 m; draft 4.2 m.

Type: Dredging. MMSI: 227003850.

Date/timePositionNaut miles runAvg speedWind from/ knotsBaromVisibWave heightAir tempDewpointWater temp
2017-Apr-24 19:00N 46°10' W 001°40'5 9.3
2017-Apr-24 18:30N 46°07' W 001°36'2 1.1
2017-Apr-24 17:07N 46°05' W 001°36'0 0.1
2017-Apr-24 16:05N 46°05' W 001°36'3 7.2
2017-Apr-24 15:38N 46°08' W 001°38'110.5
2017-Apr-24 15:31N 46°09' W 001°39'510.8
2017-Apr-24 15:01N 46°14' W 001°42'510.7
2017-Apr-24 14:31N 46°19' W 001°44'1010.3
2017-Apr-24 13:30N 46°29' W 001°47'1 1.5
2017-Apr-24 13:00N 46°30' W 001°48'0 0.0
2017-Apr-24 12:30N 46°30' W 001°48'0 0.0
2017-Apr-24 12:00N 46°30' W 001°48'2 3.2
2017-Apr-24 11:30N 46°28' W 001°47'2 4.7
2017-Apr-24 11:00N 46°26' W 001°46'4 7.6
2017-Apr-24 10:31N 46°22' W 001°45'4 8.7
2017-Apr-24 10:00N 46°18' W 001°43'5 9.1
2017-Apr-24 09:31N 46°14' W 001°42'10 3.5
2017-Apr-24 06:49N 46°05' W 001°35'1 0.9
2017-Apr-24 05:30N 46°06' W 001°37'510.2
2017-Apr-24 05:00N 46°10' W 001°41'610.6
2017-Apr-24 04:26N 46°15' W 001°46'410.5
2017-Apr-24 04:00N 46°19' W 001°50'510.7
2017-Apr-24 03:30N 46°24' W 001°54'510.7
2017-Apr-24 03:00N 46°28' W 001°58'510.6
2017-Apr-24 02:30N 46°33' W 002°02'510.6
2017-Apr-24 02:00N 46°37' W 002°07'610.5
2017-Apr-24 01:29N 46°41' W 002°11'510.7
2017-Apr-24 01:00N 46°45' W 002°16'510.8
2017-Apr-24 00:30N 46°49' W 002°21'1310.4
2017-Apr-23 23:14N 46°59' W 002°34'310.8
2017-Apr-23 23:00N 47°01' W 002°36'510.0
2017-Apr-23 22:30N 47°05' W 002°41'510.2
2017-Apr-23 22:00N 47°09' W 002°46'510.1
2017-Apr-23 21:30N 47°13' W 002°51'510.0
2017-Apr-23 21:00N 47°16' W 002°55'510.0
2017-Apr-23 20:30N 47°20' W 003°00'5 9.7
2017-Apr-23 20:00N 47°23' W 003°07'5 9.8
2017-Apr-23 19:30N 47°25' W 003°13'510.1
2017-Apr-23 19:00N 47°28' W 003°19'510.3
2017-Apr-23 18:30N 47°31' W 003°25'510.5
2017-Apr-23 18:00N 47°34' W 003°31'510.6
2017-Apr-23 17:30N 47°38' W 003°37'510.8
2017-Apr-23 17:00N 47°41' W 003°44'1010.8
2017-Apr-23 16:06N 47°46' W 003°56'210.8
2017-Apr-23 15:53N 47°47' W 003°59'8 8.8
2017-Apr-23 14:59N 47°53' W 004°07'5 4.9
2017-Apr-23 13:53N 47°58' W 004°06'0 0.0
2017-Apr-23 12:38N 47°58' W 004°06'3 3.4
2017-Apr-23 11:44N 47°56' W 004°08'5 6.4
2017-Apr-23 10:54N 47°50' W 004°06'0 0.0
2017-Apr-23 05:25N 47°50' W 004°06'0 0.0
2017-Apr-23 04:44N 47°50' W 004°06'0 0.0
2017-Apr-23 04:15N 47°50' W 004°06'0 0.0
2017-Apr-23 03:53N 47°50' W 004°06'0 0.0
2017-Apr-23 02:06N 47°50' W 004°06'0 0.0
2017-Apr-23 01:58N 47°50' W 004°06'0 0.0
2017-Apr-23 01:30N 47°50' W 004°06'0 0.0
2017-Apr-23 00:44N 47°50' W 004°06'5 4.5
2017-Apr-22 23:39N 47°47' W 004°00'6 8.3
2017-Apr-22 22:53N 47°44' W 004°09'9 9.2
2017-Apr-22 21:53N 47°45' W 004°22'10 8.9
2017-Apr-22 20:48N 47°52' W 004°33'6 8.8
2017-Apr-22 20:09N 47°57' W 004°38'1 8.9
2017-Apr-22 20:00N 47°57' W 004°39'4 8.2
2017-Apr-22 19:31N 48°00' W 004°43'4 7.1
2017-Apr-22 19:01N 48°04' W 004°46'5 9.7
2017-Apr-22 18:30N 48°08' W 004°45'5 9.8
2017-Apr-22 18:00N 48°13' W 004°45'5 9.6
2017-Apr-22 17:30N 48°18' W 004°47'510.7
2017-Apr-22 17:00N 48°23' W 004°49'510.0
2017-Apr-22 16:30N 48°28' W 004°50'5 9.6
2017-Apr-22 16:00N 48°33' W 004°49'5 9.7
2017-Apr-22 15:30N 48°37' W 004°46'5 9.3
2017-Apr-22 15:00N 48°39' W 004°40'5 8.9
2017-Apr-22 14:28N 48°41' W 004°33'  
2017-Apr-17 07:43N 48°39' W 002°01'48 1.9
2017-Apr-16 06:04N 48°55' W 003°10'15 0.5
2017-Apr-15 00:36N 48°49' W 002°49'0 0.0
2017-Apr-14 23:03N 48°49' W 002°49'0 0.8
2017-Apr-14 22:58N 48°49' W 002°49'1210.8
2017-Apr-14 21:53N 48°39' W 002°42'410.2
2017-Apr-14 21:30N 48°35' W 002°41'4 1.9
2017-Apr-14 19:33N 48°32' W 002°44'  
Track history (hours):
 
Tides and Currents Weather Stations Pressure Air Temp Water Temp Dewpoint Dewpoint Depression Visibility Wind Speed Wind Dir Waves Ship Positions

Cotes De Bretagne

Last reported at 2017-Apr-24 19:00 UTC. Time now 2017-Apr-24 19:21 UTC.
Position N 46°10' W 001°40'.

Length 75 m; draft 4.2 m.

Type: Dredging. MMSI: 227003850.

Date/timePositionNaut miles runAvg speedWind from/ knotsBaromVisibWave heightAir tempDewpointWater temp
2017-Apr-24 19:00N 46°10' W 001°40'5 9.3
2017-Apr-24 18:30N 46°07' W 001°36'2 1.1
2017-Apr-24 17:07N 46°05' W 001°36'0 0.1
2017-Apr-24 16:05N 46°05' W 001°36'3 7.2
2017-Apr-24 15:38N 46°08' W 001°38'110.5
2017-Apr-24 15:31N 46°09' W 001°39'510.8
2017-Apr-24 15:01N 46°14' W 001°42'510.7
2017-Apr-24 14:31N 46°19' W 001°44'1010.3
2017-Apr-24 13:30N 46°29' W 001°47'1 1.5
2017-Apr-24 13:00N 46°30' W 001°48'0 0.0
2017-Apr-24 12:30N 46°30' W 001°48'0 0.0
2017-Apr-24 12:00N 46°30' W 001°48'2 3.2
2017-Apr-24 11:30N 46°28' W 001°47'2 4.7
2017-Apr-24 11:00N 46°26' W 001°46'4 7.6
2017-Apr-24 10:31N 46°22' W 001°45'4 8.7
2017-Apr-24 10:00N 46°18' W 001°43'5 9.1
2017-Apr-24 09:31N 46°14' W 001°42'10 3.5
2017-Apr-24 06:49N 46°05' W 001°35'1 0.9
2017-Apr-24 05:30N 46°06' W 001°37'510.2
2017-Apr-24 05:00N 46°10' W 001°41'610.6
2017-Apr-24 04:26N 46°15' W 001°46'410.5
2017-Apr-24 04:00N 46°19' W 001°50'510.7
2017-Apr-24 03:30N 46°24' W 001°54'510.7
2017-Apr-24 03:00N 46°28' W 001°58'510.6
2017-Apr-24 02:30N 46°33' W 002°02'510.6
2017-Apr-24 02:00N 46°37' W 002°07'610.5
2017-Apr-24 01:29N 46°41' W 002°11'510.7
2017-Apr-24 01:00N 46°45' W 002°16'510.8
2017-Apr-24 00:30N 46°49' W 002°21'1310.4
2017-Apr-23 23:14N 46°59' W 002°34'310.8
2017-Apr-23 23:00N 47°01' W 002°36'510.0
2017-Apr-23 22:30N 47°05' W 002°41'510.2
2017-Apr-23 22:00N 47°09' W 002°46'510.1
2017-Apr-23 21:30N 47°13' W 002°51'510.0
2017-Apr-23 21:00N 47°16' W 002°55'510.0
2017-Apr-23 20:30N 47°20' W 003°00'5 9.7
2017-Apr-23 20:00N 47°23' W 003°07'5 9.8
2017-Apr-23 19:30N 47°25' W 003°13'510.1
2017-Apr-23 19:00N 47°28' W 003°19'510.3
2017-Apr-23 18:30N 47°31' W 003°25'510.5
2017-Apr-23 18:00N 47°34' W 003°31'510.6
2017-Apr-23 17:30N 47°38' W 003°37'510.8
2017-Apr-23 17:00N 47°41' W 003°44'1010.8
2017-Apr-23 16:06N 47°46' W 003°56'210.8
2017-Apr-23 15:53N 47°47' W 003°59'8 8.8
2017-Apr-23 14:59N 47°53' W 004°07'5 4.9
2017-Apr-23 13:53N 47°58' W 004°06'0 0.0
2017-Apr-23 12:38N 47°58' W 004°06'3 3.4
2017-Apr-23 11:44N 47°56' W 004°08'5 6.4
2017-Apr-23 10:54N 47°50' W 004°06'0 0.0
2017-Apr-23 05:25N 47°50' W 004°06'0 0.0
2017-Apr-23 04:44N 47°50' W 004°06'0 0.0
2017-Apr-23 04:15N 47°50' W 004°06'0 0.0
2017-Apr-23 03:53N 47°50' W 004°06'0 0.0
2017-Apr-23 02:06N 47°50' W 004°06'0 0.0
2017-Apr-23 01:58N 47°50' W 004°06'0 0.0
2017-Apr-23 01:30N 47°50' W 004°06'0 0.0
2017-Apr-23 00:44N 47°50' W 004°06'5 4.5
2017-Apr-22 23:39N 47°47' W 004°00'6 8.3
2017-Apr-22 22:53N 47°44' W 004°09'9 9.2
2017-Apr-22 21:53N 47°45' W 004°22'10 8.9
2017-Apr-22 20:48N 47°52' W 004°33'6 8.8
2017-Apr-22 20:09N 47°57' W 004°38'1 8.9
2017-Apr-22 20:00N 47°57' W 004°39'4 8.2
2017-Apr-22 19:31N 48°00' W 004°43'4 7.1
2017-Apr-22 19:01N 48°04' W 004°46'5 9.7
2017-Apr-22 18:30N 48°08' W 004°45'5 9.8
2017-Apr-22 18:00N 48°13' W 004°45'5 9.6
2017-Apr-22 17:30N 48°18' W 004°47'510.7
2017-Apr-22 17:00N 48°23' W 004°49'510.0
2017-Apr-22 16:30N 48°28' W 004°50'5 9.6
2017-Apr-22 16:00N 48°33' W 004°49'5 9.7
2017-Apr-22 15:30N 48°37' W 004°46'5 9.3
2017-Apr-22 15:00N 48°39' W 004°40'5 8.9
2017-Apr-22 14:28N 48°41' W 004°33'  
2017-Apr-17 07:43N 48°39' W 002°01'48 1.9
2017-Apr-16 06:04N 48°55' W 003°10'15 0.5
2017-Apr-15 00:36N 48°49' W 002°49'0 0.0
2017-Apr-14 23:03N 48°49' W 002°49'0 0.8
2017-Apr-14 22:58N 48°49' W 002°49'1210.8
2017-Apr-14 21:53N 48°39' W 002°42'410.2
2017-Apr-14 21:30N 48°35' W 002°41'4 1.9
2017-Apr-14 19:33N 48°32' W 002°44'  

Dump ship's entire track history